sensor_id;sensor_type;location;lat;lon;timestamp;temperature;humidity
8824;DHT22;4448;50.904;4.694;2022-09-09T00:09:29;14.60;99.90
8824;DHT22;4448;50.904;4.694;2022-09-09T00:12:04;14.60;99.90
8824;DHT22;4448;50.904;4.694;2022-09-09T00:15:03;14.60;99.90
8824;DHT22;4448;50.904;4.694;2022-09-09T00:20:30;14.60;99.90
8824;DHT22;4448;50.904;4.694;2022-09-09T00:25:43;14.60;99.90
8824;DHT22;4448;50.904;4.694;2022-09-09T00:28:20;14.70;99.90
8824;DHT22;4448;50.904;4.694;2022-09-09T00:30:47;14.70;99.90
8824;DHT22;4448;50.904;4.694;2022-09-09T00:33:17;14.70;99.90
8824;DHT22;4448;50.904;4.694;2022-09-09T00:35:57;14.70;99.90
8824;DHT22;4448;50.904;4.694;2022-09-09T00:38:32;14.60;99.90
8824;DHT22;4448;50.904;4.694;2022-09-09T00:41:31;14.60;99.90
8824;DHT22;4448;50.904;4.694;2022-09-09T00:49:24;14.70;99.90
8824;DHT22;4448;50.904;4.694;2022-09-09T00:55:28;14.70;99.90
8824;DHT22;4448;50.904;4.694;2022-09-09T00:57:38;14.70;99.90
8824;DHT22;4448;50.904;4.694;2022-09-09T01:00:17;14.70;99.90
8824;DHT22;4448;50.904;4.694;2022-09-09T01:03:07;14.70;99.90
8824;DHT22;4448;50.904;4.694;2022-09-09T01:08:33;14.80;99.90
8824;DHT22;4448;50.904;4.694;2022-09-09T01:11:01;14.80;99.90
8824;DHT22;4448;50.904;4.694;2022-09-09T01:13:32;14.80;99.90
8824;DHT22;4448;50.904;4.694;2022-09-09T01:16:00;14.90;99.90
8824;DHT22;4448;50.904;4.694;2022-09-09T01:18:54;14.80;99.90
8824;DHT22;4448;50.904;4.694;2022-09-09T01:26:42;14.80;99.90
8824;DHT22;4448;50.904;4.694;2022-09-09T01:29:12;14.80;99.90
8824;DHT22;4448;50.904;4.694;2022-09-09T01:31:55;14.80;99.90
8824;DHT22;4448;50.904;4.694;2022-09-09T01:34:24;14.80;99.90
8824;DHT22;4448;50.904;4.694;2022-09-09T01:37:03;14.80;99.90
8824;DHT22;4448;50.904;4.694;2022-09-09T01:39:31;14.80;99.90
8824;DHT22;4448;50.904;4.694;2022-09-09T01:41:58;14.80;99.90
8824;DHT22;4448;50.904;4.694;2022-09-09T01:44:25;14.80;99.90
8824;DHT22;4448;50.904;4.694;2022-09-09T01:46:52;14.80;99.90
8824;DHT22;4448;50.904;4.694;2022-09-09T01:49:18;14.80;99.90
8824;DHT22;4448;50.904;4.694;2022-09-09T01:51:48;14.80;99.90
8824;DHT22;4448;50.904;4.694;2022-09-09T01:54:14;14.80;99.90
8824;DHT22;4448;50.904;4.694;2022-09-09T01:57:09;14.80;99.90
8824;DHT22;4448;50.904;4.694;2022-09-09T02:02:19;14.80;99.90
8824;DHT22;4448;50.904;4.694;2022-09-09T02:04:51;14.80;99.90
8824;DHT22;4448;50.904;4.694;2022-09-09T02:07:40;14.80;99.90
8824;DHT22;4448;50.904;4.694;2022-09-09T02:10:16;14.80;99.90
8824;DHT22;4448;50.904;4.694;2022-09-09T02:12:47;14.80;99.90
8824;DHT22;4448;50.904;4.694;2022-09-09T02:15:22;14.80;99.90
8824;DHT22;4448;50.904;4.694;2022-09-09T02:17:50;14.80;99.90
8824;DHT22;4448;50.904;4.694;2022-09-09T02:20:18;14.80;99.90
8824;DHT22;4448;50.904;4.694;2022-09-09T02:22:47;14.80;99.90
8824;DHT22;4448;50.904;4.694;2022-09-09T02:25:17;14.90;99.90
8824;DHT22;4448;50.904;4.694;2022-09-09T02:27:45;14.90;99.90
8824;DHT22;4448;50.904;4.694;2022-09-09T02:30:13;14.90;99.90
8824;DHT22;4448;50.904;4.694;2022-09-09T02:32:39;14.90;99.90
8824;DHT22;4448;50.904;4.694;2022-09-09T02:35:09;14.90;99.90
8824;DHT22;4448;50.904;4.694;2022-09-09T02:37:38;14.90;99.90
8824;DHT22;4448;50.904;4.694;2022-09-09T02:40:10;14.90;99.90
8824;DHT22;4448;50.904;4.694;2022-09-09T02:42:44;14.90;99.90
8824;DHT22;4448;50.904;4.694;2022-09-09T02:45:14;15.00;99.90
8824;DHT22;4448;50.904;4.694;2022-09-09T02:50:33;15.00;99.90
8824;DHT22;4448;50.904;4.694;2022-09-09T02:53:11;15.00;99.90
8824;DHT22;4448;50.904;4.694;2022-09-09T02:58:14;15.00;99.90
8824;DHT22;4448;50.904;4.694;2022-09-09T03:00:44;15.00;99.90
8824;DHT22;4448;50.904;4.694;2022-09-09T03:03:10;15.00;99.90
8824;DHT22;4448;50.904;4.694;2022-09-09T03:05:36;15.00;99.90
8824;DHT22;4448;50.904;4.694;2022-09-09T03:08:03;15.00;99.90
8824;DHT22;4448;50.904;4.694;2022-09-09T03:10:29;15.00;99.90
8824;DHT22;4448;50.904;4.694;2022-09-09T03:12:55;15.00;99.90
8824;DHT22;4448;50.904;4.694;2022-09-09T03:15:21;15.00;99.90
8824;DHT22;4448;50.904;4.694;2022-09-09T03:17:46;15.00;99.90
8824;DHT22;4448;50.904;4.694;2022-09-09T03:20:13;15.10;99.90
8824;DHT22;4448;50.904;4.694;2022-09-09T03:22:38;15.00;99.90
8824;DHT22;4448;50.904;4.694;2022-09-09T03:25:04;15.00;99.90
8824;DHT22;4448;50.904;4.694;2022-09-09T03:27:31;15.00;99.90
8824;DHT22;4448;50.904;4.694;2022-09-09T03:29:57;14.90;99.90
8824;DHT22;4448;50.904;4.694;2022-09-09T03:32:23;15.00;99.90
8824;DHT22;4448;50.904;4.694;2022-09-09T03:34:51;15.00;99.90
8824;DHT22;4448;50.904;4.694;2022-09-09T03:37:18;15.00;99.90
8824;DHT22;4448;50.904;4.694;2022-09-09T03:39:44;15.00;99.90
8824;DHT22;4448;50.904;4.694;2022-09-09T03:42:12;15.00;99.90
8824;DHT22;4448;50.904;4.694;2022-09-09T03:44:40;15.00;99.90
8824;DHT22;4448;50.904;4.694;2022-09-09T03:47:07;15.00;99.90
8824;DHT22;4448;50.904;4.694;2022-09-09T03:49:33;15.10;99.90
8824;DHT22;4448;50.904;4.694;2022-09-09T03:51:59;15.10;99.90
8824;DHT22;4448;50.904;4.694;2022-09-09T03:54:26;15.10;99.90
8824;DHT22;4448;50.904;4.694;2022-09-09T03:56:52;15.10;99.90
8824;DHT22;4448;50.904;4.694;2022-09-09T03:59:18;15.10;99.90
8824;DHT22;4448;50.904;4.694;2022-09-09T04:01:44;15.00;99.90
8824;DHT22;4448;50.904;4.694;2022-09-09T04:04:10;15.00;99.90
8824;DHT22;4448;50.904;4.694;2022-09-09T04:06:37;15.00;99.90
8824;DHT22;4448;50.904;4.694;2022-09-09T04:09:03;15.00;99.90
8824;DHT22;4448;50.904;4.694;2022-09-09T04:11:29;15.00;99.90
8824;DHT22;4448;50.904;4.694;2022-09-09T04:13:55;15.00;99.90
8824;DHT22;4448;50.904;4.694;2022-09-09T04:16:20;15.00;99.90
8824;DHT22;4448;50.904;4.694;2022-09-09T04:18:46;15.00;99.90
8824;DHT22;4448;50.904;4.694;2022-09-09T04:21:12;15.00;99.90
8824;DHT22;4448;50.904;4.694;2022-09-09T04:23:38;15.00;99.90
8824;DHT22;4448;50.904;4.694;2022-09-09T04:26:04;15.00;99.90
8824;DHT22;4448;50.904;4.694;2022-09-09T04:28:33;15.00;99.90
8824;DHT22;4448;50.904;4.694;2022-09-09T04:31:08;15.00;99.90
8824;DHT22;4448;50.904;4.694;2022-09-09T04:33:34;15.10;99.90
8824;DHT22;4448;50.904;4.694;2022-09-09T04:36:00;15.10;99.90
8824;DHT22;4448;50.904;4.694;2022-09-09T04:38:26;15.10;99.90
8824;DHT22;4448;50.904;4.694;2022-09-09T04:40:52;15.10;99.90
8824;DHT22;4448;50.904;4.694;2022-09-09T04:43:20;15.10;99.90
8824;DHT22;4448;50.904;4.694;2022-09-09T04:45:50;15.10;99.90
8824;DHT22;4448;50.904;4.694;2022-09-09T04:48:19;15.10;99.90
8824;DHT22;4448;50.904;4.694;2022-09-09T04:51:15;15.10;99.90
8824;DHT22;4448;50.904;4.694;2022-09-09T04:53:40;15.10;99.90
8824;DHT22;4448;50.904;4.694;2022-09-09T04:56:11;15.10;99.90
8824;DHT22;4448;50.904;4.694;2022-09-09T04:58:37;15.00;99.90
8824;DHT22;4448;50.904;4.694;2022-09-09T05:01:08;15.00;99.90
8824;DHT22;4448;50.904;4.694;2022-09-09T05:03:34;15.00;99.90
8824;DHT22;4448;50.904;4.694;2022-09-09T05:06:08;15.00;99.90
8824;DHT22;4448;50.904;4.694;2022-09-09T05:08:36;15.00;99.90
8824;DHT22;4448;50.904;4.694;2022-09-09T05:11:04;15.00;99.90
8824;DHT22;4448;50.904;4.694;2022-09-09T05:13:30;15.00;99.90
8824;DHT22;4448;50.904;4.694;2022-09-09T05:15:57;15.00;99.90
8824;DHT22;4448;50.904;4.694;2022-09-09T05:18:23;15.00;99.90
8824;DHT22;4448;50.904;4.694;2022-09-09T05:20:49;15.00;99.90
8824;DHT22;4448;50.904;4.694;2022-09-09T05:23:16;15.00;99.90
8824;DHT22;4448;50.904;4.694;2022-09-09T05:25:42;15.00;99.90
8824;DHT22;4448;50.904;4.694;2022-09-09T05:28:09;15.10;99.90
8824;DHT22;4448;50.904;4.694;2022-09-09T05:30:34;15.10;99.90
8824;DHT22;4448;50.904;4.694;2022-09-09T05:33:00;15.10;99.90
8824;DHT22;4448;50.904;4.694;2022-09-09T05:35:26;15.10;99.90
8824;DHT22;4448;50.904;4.694;2022-09-09T05:37:52;15.10;99.90
8824;DHT22;4448;50.904;4.694;2022-09-09T05:40:17;15.20;99.90
8824;DHT22;4448;50.904;4.694;2022-09-09T05:42:44;15.20;99.90
8824;DHT22;4448;50.904;4.694;2022-09-09T05:45:09;15.30;99.90
8824;DHT22;4448;50.904;4.694;2022-09-09T05:47:36;15.30;99.90
8824;DHT22;4448;50.904;4.694;2022-09-09T05:50:03;15.40;99.90
8824;DHT22;4448;50.904;4.694;2022-09-09T05:52:29;15.40;99.90
8824;DHT22;4448;50.904;4.694;2022-09-09T05:54:55;15.50;99.90
8824;DHT22;4448;50.904;4.694;2022-09-09T05:57:22;15.60;99.90
8824;DHT22;4448;50.904;4.694;2022-09-09T05:59:48;15.50;99.90
8824;DHT22;4448;50.904;4.694;2022-09-09T06:02:13;15.70;99.90
8824;DHT22;4448;50.904;4.694;2022-09-09T06:04:39;15.80;99.90
8824;DHT22;4448;50.904;4.694;2022-09-09T06:07:05;15.80;99.90
8824;DHT22;4448;50.904;4.694;2022-09-09T06:09:31;16.00;99.90
8824;DHT22;4448;50.904;4.694;2022-09-09T06:11:57;15.80;99.90
8824;DHT22;4448;50.904;4.694;2022-09-09T06:14:24;15.80;99.90
8824;DHT22;4448;50.904;4.694;2022-09-09T06:16:51;15.80;99.90
8824;DHT22;4448;50.904;4.694;2022-09-09T06:19:17;15.90;99.90
8824;DHT22;4448;50.904;4.694;2022-09-09T06:21:42;15.90;99.90
8824;DHT22;4448;50.904;4.694;2022-09-09T06:24:10;15.90;99.90
8824;DHT22;4448;50.904;4.694;2022-09-09T06:26:38;15.90;99.90
8824;DHT22;4448;50.904;4.694;2022-09-09T06:29:06;15.90;99.90
8824;DHT22;4448;50.904;4.694;2022-09-09T06:31:33;15.90;99.90
8824;DHT22;4448;50.904;4.694;2022-09-09T06:34:00;16.00;99.90
8824;DHT22;4448;50.904;4.694;2022-09-09T06:36:31;16.00;99.90
8824;DHT22;4448;50.904;4.694;2022-09-09T06:38:58;16.00;99.90
8824;DHT22;4448;50.904;4.694;2022-09-09T06:41:26;16.10;99.90
8824;DHT22;4448;50.904;4.694;2022-09-09T06:43:52;16.10;99.90
8824;DHT22;4448;50.904;4.694;2022-09-09T06:46:23;16.10;99.90
8824;DHT22;4448;50.904;4.694;2022-09-09T06:48:49;16.20;99.90
8824;DHT22;4448;50.904;4.694;2022-09-09T06:51:17;16.20;99.90
8824;DHT22;4448;50.904;4.694;2022-09-09T06:53:45;16.30;99.90
8824;DHT22;4448;50.904;4.694;2022-09-09T06:56:27;16.30;99.90
8824;DHT22;4448;50.904;4.694;2022-09-09T06:58:54;16.30;99.90
8824;DHT22;4448;50.904;4.694;2022-09-09T07:01:23;16.40;99.90
8824;DHT22;4448;50.904;4.694;2022-09-09T07:03:51;16.40;99.90
8824;DHT22;4448;50.904;4.694;2022-09-09T07:06:22;16.40;99.90
8824;DHT22;4448;50.904;4.694;2022-09-09T07:08:54;16.40;99.90
8824;DHT22;4448;50.904;4.694;2022-09-09T07:11:22;16.40;99.90
8824;DHT22;4448;50.904;4.694;2022-09-09T07:13:48;16.40;99.90
8824;DHT22;4448;50.904;4.694;2022-09-09T07:16:16;16.40;99.90
8824;DHT22;4448;50.904;4.694;2022-09-09T07:18:42;16.50;99.90
8824;DHT22;4448;50.904;4.694;2022-09-09T07:21:13;16.50;99.90
8824;DHT22;4448;50.904;4.694;2022-09-09T07:23:40;16.50;99.90
8824;DHT22;4448;50.904;4.694;2022-09-09T07:26:11;16.50;99.90
8824;DHT22;4448;50.904;4.694;2022-09-09T07:28:38;16.50;99.90
8824;DHT22;4448;50.904;4.694;2022-09-09T07:31:04;16.60;99.90
8824;DHT22;4448;50.904;4.694;2022-09-09T07:33:32;16.60;99.90
8824;DHT22;4448;50.904;4.694;2022-09-09T07:36:29;16.70;99.90
8824;DHT22;4448;50.904;4.694;2022-09-09T07:38:58;16.70;99.90
8824;DHT22;4448;50.904;4.694;2022-09-09T07:41:35;16.70;99.90
8824;DHT22;4448;50.904;4.694;2022-09-09T07:44:06;16.60;99.90
8824;DHT22;4448;50.904;4.694;2022-09-09T07:46:32;16.70;99.90
8824;DHT22;4448;50.904;4.694;2022-09-09T07:48:59;16.60;99.90
8824;DHT22;4448;50.904;4.694;2022-09-09T07:51:28;16.60;99.90
8824;DHT22;4448;50.904;4.694;2022-09-09T07:54:00;16.60;99.90
8824;DHT22;4448;50.904;4.694;2022-09-09T07:56:28;16.60;99.90
8824;DHT22;4448;50.904;4.694;2022-09-09T07:58:55;16.30;99.90
8824;DHT22;4448;50.904;4.694;2022-09-09T08:01:27;16.20;99.90
8824;DHT22;4448;50.904;4.694;2022-09-09T08:03:58;16.20;99.90
8824;DHT22;4448;50.904;4.694;2022-09-09T08:06:26;16.20;99.90
8824;DHT22;4448;50.904;4.694;2022-09-09T08:08:53;16.20;99.90
8824;DHT22;4448;50.904;4.694;2022-09-09T08:11:21;16.30;99.90
8824;DHT22;4448;50.904;4.694;2022-09-09T08:13:49;16.30;99.90
8824;DHT22;4448;50.904;4.694;2022-09-09T08:16:20;16.30;99.90
8824;DHT22;4448;50.904;4.694;2022-09-09T08:18:52;16.30;99.90
8824;DHT22;4448;50.904;4.694;2022-09-09T08:21:27;16.50;99.90
8824;DHT22;4448;50.904;4.694;2022-09-09T08:23:54;16.50;99.90
8824;DHT22;4448;50.904;4.694;2022-09-09T08:26:32;16.60;99.90
8824;DHT22;4448;50.904;4.694;2022-09-09T08:28:59;16.60;99.90
8824;DHT22;4448;50.904;4.694;2022-09-09T08:31:37;16.90;99.90
8824;DHT22;4448;50.904;4.694;2022-09-09T08:34:05;17.10;99.90
8824;DHT22;4448;50.904;4.694;2022-09-09T08:36:35;17.30;99.90
8824;DHT22;4448;50.904;4.694;2022-09-09T08:39:02;17.30;99.90
8824;DHT22;4448;50.904;4.694;2022-09-09T08:41:58;17.30;99.90
8824;DHT22;4448;50.904;4.694;2022-09-09T08:50:37;17.30;99.90
8824;DHT22;4448;50.904;4.694;2022-09-09T08:58:25;17.30;99.90
8824;DHT22;4448;50.904;4.694;2022-09-09T09:09:18;16.80;99.90
8824;DHT22;4448;50.904;4.694;2022-09-09T09:14:28;16.50;99.90
8824;DHT22;4448;50.904;4.694;2022-09-09T09:16:59;16.40;99.90
8824;DHT22;4448;50.904;4.694;2022-09-09T09:19:27;16.30;99.90
8824;DHT22;4448;50.904;4.694;2022-09-09T09:27:15;16.50;99.90
8824;DHT22;4448;50.904;4.694;2022-09-09T09:29:42;16.60;99.90
8824;DHT22;4448;50.904;4.694;2022-09-09T09:32:14;16.50;99.90
8824;DHT22;4448;50.904;4.694;2022-09-09T09:34:41;16.60;99.90
8824;DHT22;4448;50.904;4.694;2022-09-09T09:37:16;16.60;99.90
8824;DHT22;4448;50.904;4.694;2022-09-09T09:39:45;16.60;99.90
8824;DHT22;4448;50.904;4.694;2022-09-09T09:42:16;16.60;99.90
8824;DHT22;4448;50.904;4.694;2022-09-09T09:44:43;16.50;99.90
8824;DHT22;4448;50.904;4.694;2022-09-09T09:47:20;16.60;99.90
8824;DHT22;4448;50.904;4.694;2022-09-09T09:49:59;16.50;99.90
8824;DHT22;4448;50.904;4.694;2022-09-09T09:52:29;16.50;99.90
8824;DHT22;4448;50.904;4.694;2022-09-09T09:54:57;16.50;99.90
8824;DHT22;4448;50.904;4.694;2022-09-09T09:57:29;16.50;99.90
8824;DHT22;4448;50.904;4.694;2022-09-09T10:00:22;16.50;99.90
8824;DHT22;4448;50.904;4.694;2022-09-09T10:02:49;16.40;99.90
8824;DHT22;4448;50.904;4.694;2022-09-09T10:05:22;16.40;99.90
8824;DHT22;4448;50.904;4.694;2022-09-09T10:10:51;16.40;99.90
8824;DHT22;4448;50.904;4.694;2022-09-09T10:13:34;16.40;99.90
8824;DHT22;4448;50.904;4.694;2022-09-09T10:19:12;16.40;99.90
8824;DHT22;4448;50.904;4.694;2022-09-09T10:27:45;16.50;99.90
8824;DHT22;4448;50.904;4.694;2022-09-09T10:41:09;16.70;99.90
8824;DHT22;4448;50.904;4.694;2022-09-09T10:43:44;16.80;99.90
8824;DHT22;4448;50.904;4.694;2022-09-09T10:56:51;17.00;99.90
8824;DHT22;4448;50.904;4.694;2022-09-09T10:59:28;17.10;99.90
8824;DHT22;4448;50.904;4.694;2022-09-09T11:04:41;17.40;99.90
8824;DHT22;4448;50.904;4.694;2022-09-09T11:07:11;17.60;99.90
8824;DHT22;4448;50.904;4.694;2022-09-09T11:09:52;17.80;99.90
8824;DHT22;4448;50.904;4.694;2022-09-09T11:12:19;18.00;99.90
8824;DHT22;4448;50.904;4.694;2022-09-09T11:14:53;18.20;99.90
8824;DHT22;4448;50.904;4.694;2022-09-09T11:17:28;18.20;99.90
8824;DHT22;4448;50.904;4.694;2022-09-09T11:19:55;18.20;99.90
8824;DHT22;4448;50.904;4.694;2022-09-09T11:25:25;18.40;99.90
8824;DHT22;4448;50.904;4.694;2022-09-09T11:30:40;18.60;99.90
8824;DHT22;4448;50.904;4.694;2022-09-09T11:33:58;18.70;99.90
8824;DHT22;4448;50.904;4.694;2022-09-09T11:41:05;19.90;99.90
8824;DHT22;4448;50.904;4.694;2022-09-09T11:43:39;20.00;99.90
8824;DHT22;4448;50.904;4.694;2022-09-09T11:46:06;20.00;99.90
8824;DHT22;4448;50.904;4.694;2022-09-09T11:48:37;20.00;99.90
8824;DHT22;4448;50.904;4.694;2022-09-09T11:51:04;19.90;99.90
8824;DHT22;4448;50.904;4.694;2022-09-09T11:53:31;20.00;99.90
8824;DHT22;4448;50.904;4.694;2022-09-09T11:56:27;19.80;99.90
8824;DHT22;4448;50.904;4.694;2022-09-09T11:59:06;19.50;99.90
8824;DHT22;4448;50.904;4.694;2022-09-09T12:02:02;19.20;99.90
8824;DHT22;4448;50.904;4.694;2022-09-09T12:04:30;19.00;99.90
8824;DHT22;4448;50.904;4.694;2022-09-09T12:07:03;19.00;99.90
8824;DHT22;4448;50.904;4.694;2022-09-09T12:12:28;19.30;99.90
8824;DHT22;4448;50.904;4.694;2022-09-09T12:17:47;19.20;99.90
8824;DHT22;4448;50.904;4.694;2022-09-09T12:30:49;19.30;99.90
8824;DHT22;4448;50.904;4.694;2022-09-09T12:33:19;19.50;99.90
8824;DHT22;4448;50.904;4.694;2022-09-09T12:35:50;19.70;99.90
8824;DHT22;4448;50.904;4.694;2022-09-09T12:38:36;19.60;99.90
8824;DHT22;4448;50.904;4.694;2022-09-09T12:41:02;19.50;99.90
8824;DHT22;4448;50.904;4.694;2022-09-09T12:43:28;19.50;99.90
8824;DHT22;4448;50.904;4.694;2022-09-09T12:46:08;19.50;99.90
8824;DHT22;4448;50.904;4.694;2022-09-09T12:48:40;19.50;99.90
8824;DHT22;4448;50.904;4.694;2022-09-09T12:51:24;19.40;99.90
8824;DHT22;4448;50.904;4.694;2022-09-09T12:53:51;19.40;99.90
8824;DHT22;4448;50.904;4.694;2022-09-09T12:56:27;19.40;99.90
8824;DHT22;4448;50.904;4.694;2022-09-09T12:58:55;19.20;99.90
8824;DHT22;4448;50.904;4.694;2022-09-09T13:01:32;19.00;99.90
8824;DHT22;4448;50.904;4.694;2022-09-09T13:04:01;19.40;99.90
8824;DHT22;4448;50.904;4.694;2022-09-09T13:06:31;20.10;99.90
8824;DHT22;4448;50.904;4.694;2022-09-09T13:09:00;20.20;99.90
8824;DHT22;4448;50.904;4.694;2022-09-09T13:11:30;20.30;99.90
8824;DHT22;4448;50.904;4.694;2022-09-09T13:13:57;20.10;99.90
8824;DHT22;4448;50.904;4.694;2022-09-09T13:16:33;20.00;99.90
8824;DHT22;4448;50.904;4.694;2022-09-09T13:19:02;19.90;99.90
8824;DHT22;4448;50.904;4.694;2022-09-09T13:21:37;19.90;99.90
8824;DHT22;4448;50.904;4.694;2022-09-09T13:24:05;20.50;99.90
8824;DHT22;4448;50.904;4.694;2022-09-09T13:26:33;21.20;99.90
8824;DHT22;4448;50.904;4.694;2022-09-09T13:29:17;21.90;99.90
8824;DHT22;4448;50.904;4.694;2022-09-09T13:31:43;21.50;99.90
8824;DHT22;4448;50.904;4.694;2022-09-09T13:34:39;20.80;99.90
8824;DHT22;4448;50.904;4.694;2022-09-09T13:37:07;20.80;99.90
8824;DHT22;4448;50.904;4.694;2022-09-09T13:39:51;20.80;99.90
8824;DHT22;4448;50.904;4.694;2022-09-09T13:42:29;21.10;99.90
8824;DHT22;4448;50.904;4.694;2022-09-09T13:44:57;21.30;99.90
8824;DHT22;4448;50.904;4.694;2022-09-09T13:47:32;21.00;99.90
8824;DHT22;4448;50.904;4.694;2022-09-09T13:50:18;21.00;99.90
8824;DHT22;4448;50.904;4.694;2022-09-09T13:52:44;21.00;99.90
8824;DHT22;4448;50.904;4.694;2022-09-09T13:55:10;20.80;99.90
8824;DHT22;4448;50.904;4.694;2022-09-09T13:57:36;20.80;99.90
8824;DHT22;4448;50.904;4.694;2022-09-09T14:00:02;20.90;99.90
8824;DHT22;4448;50.904;4.694;2022-09-09T14:02:28;21.10;99.90
8824;DHT22;4448;50.904;4.694;2022-09-09T14:04:53;21.20;99.90
8824;DHT22;4448;50.904;4.694;2022-09-09T14:07:21;20.90;99.90
8824;DHT22;4448;50.904;4.694;2022-09-09T14:09:47;20.80;99.90
8824;DHT22;4448;50.904;4.694;2022-09-09T14:12:16;21.10;99.90
8824;DHT22;4448;50.904;4.694;2022-09-09T14:14:42;21.30;99.90
8824;DHT22;4448;50.904;4.694;2022-09-09T14:17:08;21.70;99.90
8824;DHT22;4448;50.904;4.694;2022-09-09T14:19:34;22.00;99.90
8824;DHT22;4448;50.904;4.694;2022-09-09T14:22:00;22.00;99.90
8824;DHT22;4448;50.904;4.694;2022-09-09T14:24:26;21.70;99.90
8824;DHT22;4448;50.904;4.694;2022-09-09T14:26:53;21.50;99.90
8824;DHT22;4448;50.904;4.694;2022-09-09T14:29:19;21.40;99.90
8824;DHT22;4448;50.904;4.694;2022-09-09T14:31:45;21.20;99.90
8824;DHT22;4448;50.904;4.694;2022-09-09T14:34:11;21.10;99.90
8824;DHT22;4448;50.904;4.694;2022-09-09T14:36:40;21.00;99.90
8824;DHT22;4448;50.904;4.694;2022-09-09T14:39:07;21.00;99.90
8824;DHT22;4448;50.904;4.694;2022-09-09T14:41:33;21.20;99.90
8824;DHT22;4448;50.904;4.694;2022-09-09T14:43:59;21.20;99.90
8824;DHT22;4448;50.904;4.694;2022-09-09T14:46:25;21.00;99.90
8824;DHT22;4448;50.904;4.694;2022-09-09T14:48:52;20.90;99.90
8824;DHT22;4448;50.904;4.694;2022-09-09T14:51:23;20.70;99.90
8824;DHT22;4448;50.904;4.694;2022-09-09T14:53:56;20.70;99.90
8824;DHT22;4448;50.904;4.694;2022-09-09T14:56:25;20.50;99.90
8824;DHT22;4448;50.904;4.694;2022-09-09T14:58:53;20.40;99.90
8824;DHT22;4448;50.904;4.694;2022-09-09T15:01:20;20.70;99.90
8824;DHT22;4448;50.904;4.694;2022-09-09T15:03:57;21.40;99.90
8824;DHT22;4448;50.904;4.694;2022-09-09T15:06:27;22.00;99.90
8824;DHT22;4448;50.904;4.694;2022-09-09T15:08:54;21.70;99.90
8824;DHT22;4448;50.904;4.694;2022-09-09T15:11:25;21.60;99.90
8824;DHT22;4448;50.904;4.694;2022-09-09T15:13:52;21.40;99.90
8824;DHT22;4448;50.904;4.694;2022-09-09T15:16:20;21.40;99.90
8824;DHT22;4448;50.904;4.694;2022-09-09T15:18:46;21.80;99.90
8824;DHT22;4448;50.904;4.694;2022-09-09T15:21:18;21.80;99.90
8824;DHT22;4448;50.904;4.694;2022-09-09T15:23:45;21.80;99.90
8824;DHT22;4448;50.904;4.694;2022-09-09T15:26:11;21.60;99.90
8824;DHT22;4448;50.904;4.694;2022-09-09T15:28:40;21.30;99.90
8824;DHT22;4448;50.904;4.694;2022-09-09T15:31:13;21.40;99.90
8824;DHT22;4448;50.904;4.694;2022-09-09T15:36:14;21.40;99.90
8824;DHT22;4448;50.904;4.694;2022-09-09T15:38:40;21.40;99.90
8824;DHT22;4448;50.904;4.694;2022-09-09T15:41:06;21.70;99.90
8824;DHT22;4448;50.904;4.694;2022-09-09T15:43:31;22.10;99.90
8824;DHT22;4448;50.904;4.694;2022-09-09T15:46:20;22.40;99.90
8824;DHT22;4448;50.904;4.694;2022-09-09T15:48:49;22.30;99.90
8824;DHT22;4448;50.904;4.694;2022-09-09T15:51:16;22.20;99.90
8824;DHT22;4448;50.904;4.694;2022-09-09T15:53:42;21.80;99.90
8824;DHT22;4448;50.904;4.694;2022-09-09T15:56:08;21.30;99.90
8824;DHT22;4448;50.904;4.694;2022-09-09T15:58:34;20.80;99.90
8824;DHT22;4448;50.904;4.694;2022-09-09T16:01:10;20.70;99.90
8824;DHT22;4448;50.904;4.694;2022-09-09T16:03:41;20.70;99.90
8824;DHT22;4448;50.904;4.694;2022-09-09T16:06:09;20.70;99.90
8824;DHT22;4448;50.904;4.694;2022-09-09T16:08:40;20.70;99.90
8824;DHT22;4448;50.904;4.694;2022-09-09T16:11:12;20.80;99.90
8824;DHT22;4448;50.904;4.694;2022-09-09T16:13:41;21.00;99.90
8824;DHT22;4448;50.904;4.694;2022-09-09T16:16:07;21.00;99.90
8824;DHT22;4448;50.904;4.694;2022-09-09T16:18:37;21.20;99.90
8824;DHT22;4448;50.904;4.694;2022-09-09T16:21:04;21.50;99.90
8824;DHT22;4448;50.904;4.694;2022-09-09T16:23:31;21.30;99.90
8824;DHT22;4448;50.904;4.694;2022-09-09T16:25:57;20.90;99.90
8824;DHT22;4448;50.904;4.694;2022-09-09T16:28:23;20.60;99.90
8824;DHT22;4448;50.904;4.694;2022-09-09T16:30:49;20.30;99.90
8824;DHT22;4448;50.904;4.694;2022-09-09T16:33:16;20.10;99.90
8824;DHT22;4448;50.904;4.694;2022-09-09T16:35:41;20.00;99.90
8824;DHT22;4448;50.904;4.694;2022-09-09T16:38:08;19.90;99.90
8824;DHT22;4448;50.904;4.694;2022-09-09T16:40:34;19.80;99.90
8824;DHT22;4448;50.904;4.694;2022-09-09T16:43:00;19.70;99.90
8824;DHT22;4448;50.904;4.694;2022-09-09T16:45:26;19.70;99.90
8824;DHT22;4448;50.904;4.694;2022-09-09T16:47:52;19.60;99.90
8824;DHT22;4448;50.904;4.694;2022-09-09T16:50:18;19.50;99.90
8824;DHT22;4448;50.904;4.694;2022-09-09T16:52:44;19.50;99.90
8824;DHT22;4448;50.904;4.694;2022-09-09T16:55:10;19.30;99.90
8824;DHT22;4448;50.904;4.694;2022-09-09T16:57:35;18.80;99.90
8824;DHT22;4448;50.904;4.694;2022-09-09T17:00:02;18.40;99.90
8824;DHT22;4448;50.904;4.694;2022-09-09T17:02:30;18.20;99.90
8824;DHT22;4448;50.904;4.694;2022-09-09T17:04:55;18.50;99.90
8824;DHT22;4448;50.904;4.694;2022-09-09T17:07:21;18.60;99.90
8824;DHT22;4448;50.904;4.694;2022-09-09T17:09:48;18.50;99.90
8824;DHT22;4448;50.904;4.694;2022-09-09T17:12:14;18.20;99.90
8824;DHT22;4448;50.904;4.694;2022-09-09T17:14:41;18.10;99.90
8824;DHT22;4448;50.904;4.694;2022-09-09T17:17:07;18.00;99.90
8824;DHT22;4448;50.904;4.694;2022-09-09T17:19:33;18.00;99.90
8824;DHT22;4448;50.904;4.694;2022-09-09T17:21:59;18.00;99.90
8824;DHT22;4448;50.904;4.694;2022-09-09T17:24:26;18.00;99.90
8824;DHT22;4448;50.904;4.694;2022-09-09T17:26:52;18.10;99.90
8824;DHT22;4448;50.904;4.694;2022-09-09T17:29:18;18.00;99.90
8824;DHT22;4448;50.904;4.694;2022-09-09T17:31:44;18.00;99.90
8824;DHT22;4448;50.904;4.694;2022-09-09T17:34:10;17.90;99.90
8824;DHT22;4448;50.904;4.694;2022-09-09T17:36:35;17.90;99.90
8824;DHT22;4448;50.904;4.694;2022-09-09T17:39:03;17.90;99.90
8824;DHT22;4448;50.904;4.694;2022-09-09T17:41:36;17.90;99.90
8824;DHT22;4448;50.904;4.694;2022-09-09T17:44:03;17.90;99.90
8824;DHT22;4448;50.904;4.694;2022-09-09T17:46:36;17.90;99.90
8824;DHT22;4448;50.904;4.694;2022-09-09T17:49:04;17.90;99.90
8824;DHT22;4448;50.904;4.694;2022-09-09T17:51:31;17.80;99.90
8824;DHT22;4448;50.904;4.694;2022-09-09T17:54:03;17.70;99.90
8824;DHT22;4448;50.904;4.694;2022-09-09T17:56:30;17.60;99.90
8824;DHT22;4448;50.904;4.694;2022-09-09T17:58:58;17.60;99.90
8824;DHT22;4448;50.904;4.694;2022-09-09T18:01:26;17.60;99.90
8824;DHT22;4448;50.904;4.694;2022-09-09T18:03:57;17.60;99.90
8824;DHT22;4448;50.904;4.694;2022-09-09T18:06:25;17.60;99.90
8824;DHT22;4448;50.904;4.694;2022-09-09T18:08:55;17.60;99.90
8824;DHT22;4448;50.904;4.694;2022-09-09T18:11:22;17.50;99.90
8824;DHT22;4448;50.904;4.694;2022-09-09T18:13:49;17.40;99.90
8824;DHT22;4448;50.904;4.694;2022-09-09T18:16:15;17.40;99.90
8824;DHT22;4448;50.904;4.694;2022-09-09T18:18:44;17.30;99.90
8824;DHT22;4448;50.904;4.694;2022-09-09T18:21:11;17.30;99.90
8824;DHT22;4448;50.904;4.694;2022-09-09T18:23:39;17.20;99.90
8824;DHT22;4448;50.904;4.694;2022-09-09T18:26:15;17.20;99.90
8824;DHT22;4448;50.904;4.694;2022-09-09T18:28:43;17.10;99.90
8824;DHT22;4448;50.904;4.694;2022-09-09T18:31:14;17.20;99.90